createdAt,value
2018-12-17T00:02:03.241Z,76.26
2018-12-17T00:04:32.635Z,76.54
2018-12-17T00:07:01.882Z,76.60
2018-12-17T00:09:29.111Z,76.87
2018-12-17T00:11:56.380Z,76.87
2018-12-17T00:14:23.776Z,76.65
2018-12-17T00:16:52.165Z,77.24
2018-12-17T00:19:20.680Z,77.67
2018-12-17T00:21:47.911Z,76.92
2018-12-17T00:24:15.341Z,76.55
2018-12-17T00:26:42.676Z,76.59
2018-12-17T00:29:10.984Z,77.29
2018-12-17T00:31:40.256Z,78.09
2018-12-17T00:34:07.637Z,76.58
2018-12-17T00:36:34.941Z,76.79
2018-12-17T00:39:02.731Z,76.53
2018-12-17T00:41:31.972Z,76.79
2018-12-17T00:43:59.204Z,77.18
2018-12-17T00:46:26.428Z,77.63
2018-12-17T00:48:53.793Z,76.75
2018-12-17T00:51:21.464Z,76.90
2018-12-17T00:53:48.724Z,77.52
2018-12-17T00:56:17.331Z,76.13
2018-12-17T00:58:44.567Z,76.11
2018-12-17T01:01:13.770Z,76.71
2018-12-17T01:03:43.012Z,76.63
2018-12-17T01:06:10.264Z,76.47
2018-12-17T01:08:37.516Z,76.64
2018-12-17T01:11:05.827Z,76.55
2018-12-17T01:13:33.043Z,75.95
2018-12-17T01:16:05.425Z,76.69
2018-12-17T01:18:32.847Z,77.81
2018-12-17T01:21:01.242Z,76.66
2018-12-17T01:23:28.600Z,77.26
2018-12-17T01:25:56.204Z,77.11
2018-12-17T01:28:23.560Z,77.30
2018-12-17T01:30:51.804Z,77.95
2018-12-17T01:33:19.312Z,77.35
2018-12-17T01:35:46.633Z,77.87
2018-12-17T01:38:13.936Z,75.95
2018-12-17T01:40:41.272Z,77.09
2018-12-17T01:43:08.606Z,78.13
2018-12-17T01:45:35.827Z,76.94
2018-12-17T01:48:03.136Z,76.46
2018-12-17T01:50:30.361Z,76.80
2018-12-17T01:52:57.564Z,76.76
2018-12-17T01:55:24.898Z,77.44
2018-12-17T01:57:52.300Z,76.70
2018-12-17T02:00:19.595Z,77.67
2018-12-17T02:02:46.851Z,77.54
2018-12-17T02:05:15.201Z,77.44
2018-12-17T02:07:42.560Z,77.83
2018-12-17T02:10:09.869Z,78.14
2018-12-17T02:12:37.135Z,77.98
2018-12-17T02:15:05.658Z,79.28
2018-12-17T02:17:34.156Z,77.97
2018-12-17T02:20:02.165Z,78.78
2018-12-17T02:22:29.528Z,78.89
2018-12-17T02:24:56.773Z,78.82
2018-12-17T02:27:24.004Z,78.91
2018-12-17T02:29:51.232Z,78.49
2018-12-17T02:32:18.485Z,77.97
2018-12-17T02:34:45.737Z,78.25
2018-12-17T02:37:14.977Z,77.94
2018-12-17T02:39:42.188Z,78.72
2018-12-17T02:42:09.393Z,78.74
2018-12-17T02:44:36.633Z,78.98
2018-12-17T02:47:05.132Z,79.25
2018-12-17T02:49:32.388Z,79.08
2018-12-17T02:51:59.637Z,79.23
2018-12-17T02:54:26.856Z,79.23
2018-12-17T02:56:55.212Z,79.20
2018-12-17T02:59:22.440Z,78.80
2018-12-17T03:01:50.112Z,79.66
2018-12-17T03:04:17.366Z,78.76
2018-12-17T03:06:44.605Z,78.93
2018-12-17T03:09:11.884Z,79.03
2018-12-17T03:11:39.226Z,78.71
2018-12-17T03:14:06.604Z,78.02
2018-12-17T03:16:33.861Z,77.40
2018-12-17T03:19:01.099Z,77.13
2018-12-17T03:21:28.353Z,77.41
2018-12-17T03:23:55.969Z,77.56
2018-12-17T03:26:23.226Z,77.76
2018-12-17T03:28:51.865Z,79.29
2018-12-17T03:31:20.480Z,79.49
2018-12-17T03:33:47.760Z,79.01
2018-12-17T03:36:15.124Z,79.17
2018-12-17T03:38:44.387Z,79.49
2018-12-17T03:41:11.679Z,78.30
2018-12-17T03:43:55.856Z,78.81
2018-12-17T03:46:24.193Z,78.68
2018-12-17T03:48:52.469Z,79.22
2018-12-17T03:51:19.728Z,79.54
2018-12-17T03:53:48.093Z,79.64
2018-12-17T03:56:15.356Z,78.54
2018-12-17T03:58:42.896Z,79.25
2018-12-17T04:01:10.132Z,78.72
2018-12-17T04:03:39.472Z,78.70
2018-12-17T04:06:06.756Z,79.05
2018-12-17T04:08:34.042Z,78.88
2018-12-17T04:11:01.321Z,79.02
2018-12-17T04:13:29.779Z,78.94
2018-12-17T04:15:57.038Z,78.25
2018-12-17T04:18:24.726Z,79.24
2018-12-17T04:20:53.086Z,78.89
2018-12-17T04:23:20.329Z,77.93
2018-12-17T04:25:49.573Z,79.20
2018-12-17T04:28:18.217Z,79.02
2018-12-17T04:30:45.462Z,77.89
2018-12-17T04:33:12.865Z,78.26
2018-12-17T04:35:41.240Z,79.06
2018-12-17T04:38:08.537Z,78.36
2018-12-17T04:40:37.857Z,78.26
2018-12-17T04:43:06.344Z,77.91
2018-12-17T04:45:37.588Z,77.17
2018-12-17T04:48:04.957Z,77.36
2018-12-17T04:50:32.214Z,77.10
2018-12-17T04:53:01.524Z,77.85
2018-12-17T04:55:30.272Z,77.69
2018-12-17T04:57:57.757Z,79.16
2018-12-17T05:00:25.141Z,79.13
2018-12-17T05:02:52.437Z,78.84
2018-12-17T05:05:23.289Z,78.93
2018-12-17T05:07:50.680Z,78.15
2018-12-17T05:10:18.533Z,78.82
2018-12-17T05:12:45.804Z,79.65
2018-12-17T05:15:13.061Z,78.27
2018-12-17T05:17:40.308Z,78.47
2018-12-17T05:20:07.549Z,79.54
2018-12-17T05:22:34.949Z,79.51
2018-12-17T05:25:02.204Z,78.82
2018-12-17T05:27:29.453Z,79.15
2018-12-17T05:29:56.838Z,79.51
2018-12-17T05:32:24.096Z,79.79
2018-12-17T05:34:51.342Z,79.26
2018-12-17T05:37:18.604Z,79.68
2018-12-17T05:39:45.846Z,79.97
2018-12-17T05:42:13.081Z,79.94
2018-12-17T05:46:09.871Z,79.49
2018-12-17T05:48:54.080Z,77.40
2018-12-17T05:51:21.432Z,77.59
2018-12-17T05:53:48.785Z,77.74
2018-12-17T05:56:16.026Z,78.79
2018-12-17T05:58:43.261Z,78.24
2018-12-17T06:01:10.521Z,78.70
2018-12-17T06:03:37.741Z,79.17
2018-12-17T06:06:04.972Z,79.48
2018-12-17T06:08:32.226Z,80.07
2018-12-17T06:10:59.553Z,78.85
2018-12-17T06:13:26.905Z,78.42
2018-12-17T06:15:54.469Z,79.78
2018-12-17T06:18:21.700Z,80.26
2018-12-17T06:20:49.172Z,79.56
2018-12-17T06:23:16.547Z,80.16
2018-12-17T06:25:43.756Z,79.93
2018-12-17T06:28:10.980Z,78.63
2018-12-17T06:30:38.484Z,78.70
2018-12-17T06:33:05.972Z,78.43
2018-12-17T06:35:33.420Z,78.93
2018-12-17T06:38:00.656Z,78.92
2018-12-17T06:40:27.888Z,78.79
2018-12-17T06:42:55.256Z,78.07
2018-12-17T06:45:22.475Z,78.73
2018-12-17T06:47:49.704Z,78.73
2018-12-17T06:50:17.040Z,79.69
2018-12-17T06:52:44.284Z,80.03
2018-12-17T06:55:11.508Z,80.33
2018-12-17T06:57:38.824Z,79.42
2018-12-17T07:00:06.428Z,79.55
2018-12-17T07:02:33.783Z,78.84
2018-12-17T07:05:01.012Z,79.24
2018-12-17T07:07:28.314Z,78.75
2018-12-17T07:09:55.563Z,79.98
2018-12-17T07:12:22.934Z,80.80
2018-12-17T07:14:50.281Z,80.25
2018-12-17T07:17:18.640Z,80.59
2018-12-17T07:19:45.880Z,81.01
2018-12-17T07:22:13.113Z,81.05
2018-12-17T07:24:40.359Z,80.97
2018-12-17T07:27:07.608Z,82.12
2018-12-17T07:29:34.836Z,82.19
2018-12-17T07:32:03.100Z,82.29
2018-12-17T07:34:30.556Z,82.80
2018-12-17T07:36:58.356Z,82.30
2018-12-17T07:39:26.420Z,82.71
2018-12-17T07:41:53.653Z,82.18
2018-12-17T07:44:20.872Z,82.59
2018-12-17T07:46:48.170Z,82.51
2018-12-17T07:49:15.391Z,83.33
2018-12-17T07:51:42.628Z,83.03
2018-12-17T07:54:10.888Z,83.23
2018-12-17T07:56:38.168Z,83.71
2018-12-17T07:59:05.424Z,84.21
2018-12-17T08:01:32.852Z,84.76
2018-12-17T08:04:00.192Z,83.80
2018-12-17T08:06:27.400Z,82.95
2018-12-17T08:08:54.696Z,82.56
2018-12-17T08:11:21.951Z,83.36
2018-12-17T08:13:49.218Z,84.15
2018-12-17T08:16:16.557Z,83.66
2018-12-17T08:18:43.800Z,84.04
2018-12-17T08:21:11.028Z,84.23
2018-12-17T08:23:38.256Z,85.28
2018-12-17T08:26:05.484Z,84.09
2018-12-17T08:28:32.757Z,84.13
2018-12-17T08:30:59.977Z,83.96
2018-12-17T08:33:27.208Z,82.79
2018-12-17T08:35:54.424Z,83.89
2018-12-17T08:38:21.649Z,83.93
2018-12-17T08:40:48.868Z,83.91
2018-12-17T08:43:16.112Z,84.18
2018-12-17T08:45:43.349Z,85.80
2018-12-17T08:48:10.703Z,84.80
2018-12-17T08:50:37.932Z,85.41
2018-12-17T08:53:05.164Z,84.57
2018-12-17T08:55:32.390Z,83.93
2018-12-17T08:57:59.637Z,84.08
2018-12-17T09:00:26.976Z,84.01
2018-12-17T09:02:55.385Z,84.82
2018-12-17T09:05:22.622Z,85.24
2018-12-17T09:07:50.193Z,84.89
2018-12-17T09:10:17.424Z,84.24
2018-12-17T09:12:44.668Z,85.85
2018-12-17T09:15:11.914Z,83.79
2018-12-17T09:17:39.144Z,85.84
2018-12-17T09:20:07.148Z,85.79
2018-12-17T09:22:34.507Z,84.62
2018-12-17T09:25:01.864Z,85.57
2018-12-17T09:27:29.332Z,85.14
2018-12-17T09:29:56.599Z,84.49
2018-12-17T09:32:24.095Z,84.75
2018-12-17T09:34:51.324Z,83.46
2018-12-17T09:37:18.641Z,83.69
2018-12-17T09:39:45.924Z,83.34
2018-12-17T09:42:13.184Z,84.18
2018-12-17T09:44:40.464Z,85.31
2018-12-17T09:47:07.728Z,84.88
2018-12-17T09:49:34.980Z,84.53
2018-12-17T09:52:02.272Z,84.46
2018-12-17T09:54:29.510Z,84.57
2018-12-17T09:56:56.744Z,84.71
2018-12-17T09:59:23.998Z,84.53
2018-12-17T10:01:51.575Z,84.95
2018-12-17T10:04:19.251Z,84.30
2018-12-17T10:06:46.712Z,83.71
2018-12-17T10:09:13.957Z,84.42
2018-12-17T10:11:41.212Z,83.56
2018-12-17T10:14:08.495Z,84.38
2018-12-17T10:16:36.013Z,84.63
2018-12-17T10:19:03.264Z,84.76
2018-12-17T10:21:30.809Z,83.94
2018-12-17T10:23:58.573Z,84.97
2018-12-17T10:26:26.956Z,84.79
2018-12-17T10:28:54.804Z,84.89
2018-12-17T10:31:22.036Z,84.93
2018-12-17T10:33:49.272Z,84.73
2018-12-17T10:36:16.623Z,82.77
2018-12-17T10:38:43.892Z,84.09
2018-12-17T10:41:11.163Z,84.74
2018-12-17T10:43:41.518Z,84.11
2018-12-17T10:46:10.787Z,83.81
2018-12-17T10:48:39.068Z,83.38
2018-12-17T10:51:06.328Z,81.93
2018-12-17T10:53:33.585Z,82.65
2018-12-17T10:56:00.820Z,82.38
2018-12-17T10:58:30.244Z,81.97
2018-12-17T11:01:03.168Z,83.08
2018-12-17T11:03:35.200Z,83.12
2018-12-17T11:06:06.488Z,81.58
2018-12-17T11:08:33.835Z,81.96
2018-12-17T11:11:01.104Z,81.42
2018-12-17T11:13:30.385Z,83.19
2018-12-17T11:15:57.916Z,81.51
2018-12-17T11:18:25.292Z,80.89
2018-12-17T11:20:52.617Z,81.38
2018-12-17T11:23:19.989Z,81.53
2018-12-17T11:25:47.253Z,80.81
2018-12-17T11:28:15.606Z,82.19
2018-12-17T11:30:46.537Z,81.86
2018-12-17T11:33:13.501Z,81.97
2018-12-17T11:35:41.344Z,82.21
2018-12-17T11:38:08.697Z,81.34
2018-12-17T11:40:36.068Z,82.44
2018-12-17T11:43:04.208Z,81.42
2018-12-17T11:45:31.689Z,82.60
2018-12-17T11:47:58.960Z,82.40
2018-12-17T11:50:26.189Z,82.51
2018-12-17T11:52:53.532Z,81.95
2018-12-17T11:55:21.056Z,80.86
2018-12-17T11:58:04.296Z,81.29
2018-12-17T12:00:33.864Z,81.88
2018-12-17T12:03:01.225Z,80.97
2018-12-17T12:05:28.617Z,81.84
2018-12-17T12:07:55.896Z,81.87
2018-12-17T12:10:23.293Z,82.97
2018-12-17T12:12:50.644Z,82.67
2018-12-17T12:15:18.064Z,82.32
2018-12-17T12:17:45.308Z,83.03
2018-12-17T12:20:12.692Z,83.41
2018-12-17T12:22:40.033Z,84.05
2018-12-17T12:25:07.389Z,84.63
2018-12-17T12:27:34.652Z,83.91
2018-12-17T12:30:01.929Z,84.08
2018-12-17T12:32:29.530Z,81.29
2018-12-17T12:34:57.092Z,80.04
2018-12-17T12:37:24.319Z,81.65
2018-12-17T12:39:51.557Z,82.33
2018-12-17T12:42:18.797Z,82.04
2018-12-17T12:44:46.082Z,81.91
2018-12-17T12:47:13.340Z,82.32
2018-12-17T12:49:40.589Z,82.13
2018-12-17T12:52:07.823Z,82.67
2018-12-17T12:54:36.128Z,83.40
2018-12-17T12:57:04.467Z,82.44
2018-12-17T12:59:39.881Z,83.62
2018-12-17T13:02:14.335Z,83.39
2018-12-17T13:04:43.069Z,83.90
2018-12-17T13:07:10.421Z,83.47
2018-12-17T13:09:38.772Z,84.26
2018-12-17T13:12:05.997Z,85.09
2018-12-17T13:14:33.236Z,83.67
2018-12-17T13:17:05.040Z,85.11
2018-12-17T13:19:32.333Z,85.54
2018-12-17T13:21:59.552Z,84.58
2018-12-17T13:24:26.797Z,84.47
2018-12-17T13:26:54.008Z,83.82
2018-12-17T13:29:21.260Z,85.13
2018-12-17T13:31:48.484Z,84.76
2018-12-17T13:34:15.715Z,84.28
2018-12-17T13:36:42.940Z,83.21
2018-12-17T13:39:10.188Z,84.61
2018-12-17T13:41:37.533Z,85.34
2018-12-17T13:44:04.818Z,85.09
2018-12-17T13:46:32.064Z,85.84
2018-12-17T13:48:59.632Z,85.87
2018-12-17T13:51:33.432Z,85.88
2018-12-17T13:54:01.400Z,84.76
2018-12-17T13:56:29.008Z,86.21
2018-12-17T13:58:56.564Z,84.79
2018-12-17T14:01:24.032Z,85.46
2018-12-17T14:03:51.264Z,86.63
2018-12-17T14:06:18.952Z,86.30
2018-12-17T14:08:46.352Z,86.23
2018-12-17T14:11:13.597Z,85.85
2018-12-17T14:13:40.877Z,86.86
2018-12-17T14:16:15.029Z,85.86
2018-12-17T14:18:49.349Z,85.68
2018-12-17T14:21:22.636Z,86.13
2018-12-17T14:23:49.868Z,85.23
2018-12-17T14:26:17.120Z,86.19
2018-12-17T14:28:44.520Z,86.31
2018-12-17T14:31:11.760Z,86.28
2018-12-17T14:33:39.013Z,85.81
2018-12-17T14:36:08.918Z,86.16
2018-12-17T14:38:37.400Z,87.13
2018-12-17T14:41:05.328Z,85.86
2018-12-17T14:43:33.047Z,86.77
2018-12-17T14:46:00.288Z,86.59
2018-12-17T14:48:27.564Z,87.21
2018-12-17T14:50:54.830Z,85.71
2018-12-17T14:53:22.176Z,85.58
2018-12-17T14:55:49.681Z,86.69
2018-12-17T14:58:16.928Z,86.87
2018-12-17T15:00:44.150Z,86.71
2018-12-17T15:03:11.388Z,86.18
2018-12-17T15:05:38.979Z,86.27
2018-12-17T15:08:06.316Z,87.08
2018-12-17T15:10:33.569Z,85.87
2018-12-17T15:13:01.250Z,86.89
2018-12-17T15:15:28.485Z,86.63
2018-12-17T15:17:56.824Z,86.38
2018-12-17T15:20:24.142Z,87.10
2018-12-17T15:22:51.369Z,86.85
2018-12-17T15:25:18.599Z,87.04
2018-12-17T15:27:45.873Z,86.58
2018-12-17T15:30:13.338Z,86.76
2018-12-17T15:32:40.696Z,86.96
2018-12-17T15:35:07.941Z,86.59
2018-12-17T15:37:35.176Z,86.97
2018-12-17T15:40:03.172Z,87.20
2018-12-17T15:42:32.680Z,87.23
2018-12-17T15:44:59.916Z,86.46
2018-12-17T15:47:27.488Z,87.13
2018-12-17T15:49:54.716Z,87.27
2018-12-17T15:52:21.977Z,86.09
2018-12-17T15:54:49.265Z,87.45
2018-12-17T15:57:16.581Z,86.72
2018-12-17T15:59:43.801Z,87.83
2018-12-17T16:02:11.040Z,88.68
2018-12-17T16:04:38.280Z,87.94
2018-12-17T16:07:05.527Z,87.34
2018-12-17T16:09:32.956Z,87.04
2018-12-17T16:12:00.197Z,88.28
2018-12-17T16:14:28.473Z,88.02
2018-12-17T16:16:55.740Z,86.78
2018-12-17T16:19:22.989Z,87.17
2018-12-17T16:21:50.425Z,87.77
2018-12-17T16:24:19.680Z,87.70
2018-12-17T16:26:46.942Z,88.75
2018-12-17T16:29:14.180Z,87.73
2018-12-17T16:31:41.584Z,88.43
2018-12-17T16:34:08.829Z,88.26
2018-12-17T16:36:36.404Z,88.68
2018-12-17T16:39:06.201Z,88.33
2018-12-17T16:41:35.472Z,88.05
2018-12-17T16:44:02.852Z,86.79
2018-12-17T16:46:30.228Z,86.81
2018-12-17T16:48:57.512Z,87.81
2018-12-17T16:51:24.773Z,87.86
2018-12-17T16:53:52.029Z,88.18
2018-12-17T16:56:19.316Z,88.89
2018-12-17T16:59:03.489Z,88.40
2018-12-17T17:01:30.720Z,88.58
2018-12-17T17:03:57.972Z,89.77
2018-12-17T17:06:25.236Z,88.90
2018-12-17T17:08:52.545Z,89.44
2018-12-17T17:11:19.800Z,87.19
2018-12-17T17:13:47.257Z,86.73
2018-12-17T17:16:14.769Z,88.06
2018-12-17T17:18:42.218Z,87.99
2018-12-17T17:21:09.456Z,88.70
2018-12-17T17:23:36.700Z,89.17
2018-12-17T17:26:04.104Z,89.28
2018-12-17T17:28:31.396Z,88.36
2018-12-17T17:30:58.792Z,86.85
2018-12-17T17:33:26.257Z,88.70
2018-12-17T17:35:54.512Z,87.44
2018-12-17T17:38:21.769Z,87.13
2018-12-17T17:40:50.472Z,89.72
2018-12-17T17:43:18.861Z,89.28
2018-12-17T17:45:46.127Z,88.99
2018-12-17T17:48:14.481Z,89.10
2018-12-17T17:53:38.505Z,89.43
2018-12-17T17:56:05.801Z,90.06
2018-12-17T17:58:33.265Z,91.24
2018-12-17T18:01:00.636Z,90.64
2018-12-17T18:03:27.870Z,91.86
2018-12-17T18:05:55.125Z,91.77
2018-12-17T18:08:22.352Z,90.19
2018-12-17T18:10:49.581Z,90.82
2018-12-17T18:13:16.848Z,91.53
2018-12-17T18:15:44.100Z,91.23
2018-12-17T18:18:11.336Z,92.31
2018-12-17T18:20:38.719Z,91.07
2018-12-17T18:23:05.948Z,91.02
2018-12-17T18:25:33.320Z,91.45
2018-12-17T18:28:00.610Z,92.17
2018-12-17T18:30:27.861Z,91.78
2018-12-17T18:32:55.587Z,91.23
2018-12-17T18:35:23.246Z,90.48
2018-12-17T18:37:50.500Z,91.49
2018-12-17T18:40:19.223Z,91.28
2018-12-17T18:42:46.600Z,92.15
2018-12-17T18:45:13.833Z,92.55
2018-12-17T18:47:41.108Z,92.55
2018-12-17T18:50:09.965Z,92.56
2018-12-17T18:52:37.344Z,92.73
2018-12-17T18:55:05.380Z,92.13
2018-12-17T18:57:32.640Z,92.04
2018-12-17T19:00:00.001Z,91.84
2018-12-17T19:02:33.062Z,93.70
2018-12-17T19:04:57.344Z,93.23
2018-12-17T19:07:24.931Z,93.96
2018-12-17T19:09:52.220Z,93.44
2018-12-17T19:12:19.868Z,92.63
2018-12-17T19:14:47.236Z,92.83
2018-12-17T19:17:15.592Z,92.75
2018-12-17T19:19:43.214Z,93.18
2018-12-17T19:22:11.604Z,91.96
2018-12-17T19:24:38.913Z,92.44
2018-12-17T19:27:06.337Z,92.54
2018-12-17T19:29:33.601Z,93.28
2018-12-17T19:32:02.884Z,93.49
2018-12-17T19:34:30.439Z,93.67
2018-12-17T19:36:57.702Z,91.93
2018-12-17T19:39:24.953Z,92.87
2018-12-17T19:41:52.301Z,92.75
2018-12-17T19:44:36.660Z,92.74
2018-12-17T19:47:03.916Z,92.97
2018-12-17T19:49:31.305Z,91.50
2018-12-17T19:51:58.720Z,92.96
2018-12-17T19:54:25.963Z,92.12
2018-12-17T19:56:53.472Z,93.49
2018-12-17T19:59:21.912Z,93.88
2018-12-17T20:01:49.188Z,94.53
2018-12-17T20:04:18.588Z,94.15
2018-12-17T20:06:46.041Z,94.07
2018-12-17T20:09:13.436Z,94.27
2018-12-17T20:11:41.112Z,95.04
2018-12-17T20:14:09.397Z,94.97
2018-12-17T20:16:36.780Z,94.68
2018-12-17T20:19:04.057Z,94.69
2018-12-17T20:21:31.444Z,95.33
2018-12-17T20:23:58.688Z,94.97
2018-12-17T20:26:25.928Z,95.60
2018-12-17T20:28:53.444Z,96.16
2018-12-17T20:31:20.678Z,95.53
2018-12-17T20:33:47.936Z,94.81
2018-12-17T20:36:15.320Z,95.22
2018-12-17T20:38:42.612Z,95.51
2018-12-17T20:41:09.888Z,95.19
2018-12-17T20:43:37.176Z,94.79
2018-12-17T20:46:04.556Z,94.71
2018-12-17T20:48:31.809Z,95.45
2018-12-17T20:50:59.124Z,94.73
2018-12-17T20:53:26.344Z,94.55
2018-12-17T20:55:53.616Z,94.85
2018-12-17T20:58:21.020Z,94.09
2018-12-17T21:00:48.288Z,94.38
2018-12-17T21:03:15.573Z,95.13
2018-12-17T21:05:43.104Z,95.47
2018-12-17T21:08:10.726Z,94.94
2018-12-17T21:10:39.093Z,95.55
2018-12-17T21:13:06.501Z,96.35
2018-12-17T21:15:33.747Z,96.28
2018-12-17T21:18:01.004Z,96.51
2018-12-17T21:20:28.249Z,95.05
2018-12-17T21:22:55.608Z,95.63
2018-12-17T21:25:22.960Z,94.59
2018-12-17T21:27:51.392Z,94.73
2018-12-17T21:30:18.634Z,95.05
2018-12-17T21:32:45.988Z,95.20
2018-12-17T21:35:13.340Z,94.36
2018-12-17T21:37:40.593Z,94.58
2018-12-17T21:40:08.493Z,94.96
2018-12-17T21:42:35.753Z,94.87
2018-12-17T21:45:05.417Z,95.22
2018-12-17T21:47:34.345Z,94.82
2018-12-17T21:50:02.245Z,95.13
2018-12-17T21:52:29.801Z,94.26
2018-12-17T21:54:57.032Z,95.04
2018-12-17T21:57:24.280Z,95.24
2018-12-17T21:59:51.541Z,95.51
2018-12-17T22:02:19.062Z,95.82
2018-12-17T22:04:46.617Z,96.11
2018-12-17T22:07:13.978Z,96.67
2018-12-17T22:09:41.500Z,95.62
2018-12-17T22:12:08.757Z,96.57
2018-12-17T22:14:36.107Z,96.09
2018-12-17T22:17:03.625Z,95.55
2018-12-17T22:19:30.969Z,96.46
2018-12-17T22:21:59.418Z,96.02
2018-12-17T22:24:26.924Z,95.61
2018-12-17T22:26:54.167Z,95.95
2018-12-17T22:29:21.532Z,95.46
2018-12-17T22:31:48.960Z,95.76
2018-12-17T22:34:16.320Z,95.50
2018-12-17T22:36:43.541Z,94.83
2018-12-17T22:39:11.000Z,95.25
2018-12-17T22:41:38.236Z,95.85
2018-12-17T22:44:05.468Z,95.00
2018-12-17T22:46:33.060Z,95.07
2018-12-17T22:49:00.637Z,95.23
2018-12-17T22:51:27.928Z,93.13
2018-12-17T22:53:55.340Z,93.34
2018-12-17T22:56:23.593Z,94.22
2018-12-17T22:58:50.848Z,94.20
2018-12-17T23:01:18.240Z,94.75
2018-12-17T23:03:45.588Z,94.26
2018-12-17T23:06:12.829Z,94.88
2018-12-17T23:08:51.360Z,95.87
2018-12-17T23:11:34.239Z,95.26
2018-12-17T23:14:13.173Z,95.57
2018-12-17T23:16:52.016Z,94.15
2018-12-17T23:19:18.509Z,94.66
2018-12-17T23:21:47.884Z,93.36
2018-12-17T23:24:17.125Z,93.58
2018-12-17T23:26:44.520Z,94.49
2018-12-17T23:29:11.852Z,95.71
2018-12-17T23:31:39.292Z,94.16
2018-12-17T23:34:06.680Z,93.99
2018-12-17T23:36:33.900Z,93.89
2018-12-17T23:39:01.337Z,94.23
2018-12-17T23:41:30.612Z,94.86
2018-12-17T23:43:57.967Z,94.55
2018-12-17T23:46:25.192Z,94.77
2018-12-17T23:48:52.580Z,94.14
2018-12-17T23:51:20.153Z,93.83
2018-12-17T23:53:47.409Z,94.60
2018-12-17T23:56:15.480Z,94.50
2018-12-17T23:58:42.832Z,95.02
